AEE7F LGSK-LGTS
Flight info
| Callsign | AEE7F |
|---|---|
| Flight time | 0h 18m |
| Altitude | 18000 |
| Route | SIGFO B1 SKP L617 LEKPO |
| Aircraft | A321/M-SDE3FGHIRWY/LB1 |
Departure
| Time | 2026-04-23 10:19 |
|---|---|
| Airport | Skiathos Island National Airport (LGSK) |
Arrival
| Time | 2026-04-23 10:38 |
|---|---|
| Airport | Thessaloniki Macedonia International Airport (LGTS) |
| Time | Latitude | Longitude | Altitude | Speed | Heading |
|---|---|---|---|---|---|
| 2026-04-23 10:00 | 39.17908 | 23.50242 | 39 ft | 0 kts | 289° |
| 2026-04-23 10:04 | 39.17908 | 23.50243 | 39 ft | 0 kts | 289° |
| 2026-04-23 10:09 | 39.17907 | 23.50248 | 39 ft | 2 kts | 287° |
| 2026-04-23 10:10 | 39.17902 | 23.50269 | 39 ft | 2 kts | 278° |
| 2026-04-23 10:10 | 39.17899 | 23.50290 | 39 ft | 2 kts | 276° |
| 2026-04-23 10:10 | 39.17899 | 23.50311 | 39 ft | 2 kts | 255° |
| 2026-04-23 10:10 | 39.17906 | 23.50330 | 37 ft | 2 kts | 218° |
| 2026-04-23 10:11 | 39.17917 | 23.50340 | 38 ft | 1 kts | 199° |
| 2026-04-23 10:11 | 39.17918 | 23.50340 | 39 ft | 0 kts | 198° |
| 2026-04-23 10:13 | 39.17917 | 23.50340 | 38 ft | 1 kts | 197° |
| 2026-04-23 10:13 | 39.17908 | 23.50336 | 37 ft | 2 kts | 199° |
| 2026-04-23 10:13 | 39.17894 | 23.50329 | 39 ft | 4 kts | 200° |
| 2026-04-23 10:14 | 39.17857 | 23.50312 | 39 ft | 7 kts | 200° |
| 2026-04-23 10:14 | 39.17805 | 23.50288 | 39 ft | 9 kts | 199° |
| 2026-04-23 10:14 | 39.17742 | 23.50262 | 39 ft | 10 kts | 191° |
| 2026-04-23 10:14 | 39.17698 | 23.50320 | 40 ft | 10 kts | 115° |
| 2026-04-23 10:15 | 39.17644 | 23.50337 | 41 ft | 9 kts | 196° |
| 2026-04-23 10:15 | 39.17577 | 23.50307 | 40 ft | 12 kts | 199° |
| 2026-04-23 10:15 | 39.17491 | 23.50269 | 39 ft | 14 kts | 199° |
| 2026-04-23 10:15 | 39.17384 | 23.50222 | 35 ft | 19 kts | 198° |
| 2026-04-23 10:16 | 39.17241 | 23.50158 | 28 ft | 25 kts | 199° |
| 2026-04-23 10:16 | 39.17094 | 23.50094 | 18 ft | 15 kts | 199° |
| 2026-04-23 10:16 | 39.17021 | 23.50083 | 11 ft | 6 kts | 235° |
| 2026-04-23 10:16 | 39.17036 | 23.50054 | 12 ft | 2 kts | 30° |
| 2026-04-23 10:17 | 39.17039 | 23.50060 | 12 ft | 1 kts | 44° |
| 2026-04-23 10:17 | 39.17044 | 23.50065 | 13 ft | 0 kts | 44° |
| 2026-04-23 10:17 | 39.17055 | 23.50075 | 15 ft | 3 kts | 29° |
| 2026-04-23 10:17 | 39.17059 | 23.50077 | 15 ft | 0 kts | 24° |
| 2026-04-23 10:19 | 39.17220 | 23.50150 | 24 ft | 68 kts | 18° |
| 2026-04-23 10:19 | 39.17930 | 23.50460 | 49 ft | 144 kts | 20° |
| 2026-04-23 10:19 | 39.18897 | 23.50898 | 942 ft | 144 kts | 21° |
| 2026-04-23 10:19 | 39.19833 | 23.51315 | 2193 ft | 143 kts | 22° |
| 2026-04-23 10:20 | 39.20790 | 23.51739 | 2932 ft | 149 kts | 21° |
| 2026-04-23 10:20 | 39.21836 | 23.52204 | 3192 ft | 171 kts | 19° |
| 2026-04-23 10:20 | 39.23033 | 23.52733 | 3472 ft | 192 kts | 19° |
| 2026-04-23 10:20 | 39.24319 | 23.53300 | 4046 ft | 197 kts | 18° |
| 2026-04-23 10:21 | 39.25628 | 23.53879 | 4779 ft | 201 kts | 17° |
| 2026-04-23 10:21 | 39.26996 | 23.54277 | 5419 ft | 205 kts | 358° |
| 2026-04-23 10:21 | 39.28379 | 23.53844 | 6012 ft | 207 kts | 338° |
| 2026-04-23 10:21 | 39.29733 | 23.53190 | 6589 ft | 209 kts | 337° |
| 2026-04-23 10:22 | 39.31098 | 23.52529 | 7128 ft | 210 kts | 337° |
| 2026-04-23 10:22 | 39.32473 | 23.51861 | 7665 ft | 212 kts | 337° |
| 2026-04-23 10:22 | 39.33858 | 23.51189 | 8192 ft | 214 kts | 336° |
| 2026-04-23 10:22 | 39.35257 | 23.50509 | 8717 ft | 216 kts | 336° |
| 2026-04-23 10:23 | 39.36210 | 23.50048 | 9060 ft | 217 kts | 336° |
| 2026-04-23 10:23 | 39.37635 | 23.49356 | 9593 ft | 219 kts | 336° |
| 2026-04-23 10:23 | 39.39070 | 23.48661 | 10098 ft | 221 kts | 336° |
| 2026-04-23 10:23 | 39.40516 | 23.47960 | 10565 ft | 223 kts | 335° |
| 2026-04-23 10:24 | 39.41975 | 23.47250 | 11028 ft | 225 kts | 335° |
| 2026-04-23 10:24 | 39.43443 | 23.46534 | 11452 ft | 229 kts | 335° |
| 2026-04-23 10:24 | 39.44986 | 23.45778 | 11585 ft | 246 kts | 335° |
| 2026-04-23 10:24 | 39.46645 | 23.44963 | 11707 ft | 266 kts | 335° |
| 2026-04-23 10:25 | 39.48450 | 23.44080 | 11849 ft | 289 kts | 336° |
| 2026-04-23 10:25 | 39.50378 | 23.43141 | 11976 ft | 311 kts | 336° |
| 2026-04-23 10:25 | 39.52470 | 23.42124 | 12117 ft | 331 kts | 336° |
| 2026-04-23 10:25 | 39.54689 | 23.41044 | 12256 ft | 350 kts | 336° |
| 2026-04-23 10:26 | 39.56994 | 23.39922 | 12694 ft | 357 kts | 336° |
| 2026-04-23 10:26 | 39.59338 | 23.38784 | 13294 ft | 361 kts | 336° |
| 2026-04-23 10:26 | 39.61703 | 23.37634 | 13893 ft | 364 kts | 336° |
| 2026-04-23 10:26 | 39.64083 | 23.36476 | 14438 ft | 367 kts | 336° |
| 2026-04-23 10:27 | 39.66476 | 23.35312 | 15011 ft | 368 kts | 336° |
| 2026-04-23 10:27 | 39.68882 | 23.34137 | 15601 ft | 370 kts | 335° |
| 2026-04-23 10:27 | 39.71295 | 23.32955 | 16174 ft | 372 kts | 335° |
| 2026-04-23 10:27 | 39.73719 | 23.31767 | 16754 ft | 373 kts | 335° |
| 2026-04-23 10:28 | 39.76157 | 23.30569 | 17280 ft | 376 kts | 335° |
| 2026-04-23 10:28 | 39.78620 | 23.29357 | 17644 ft | 382 kts | 335° |
| 2026-04-23 10:28 | 39.81132 | 23.28123 | 17994 ft | 390 kts | 335° |
| 2026-04-23 10:28 | 39.83703 | 23.26858 | 18091 ft | 399 kts | 335° |
| 2026-04-23 10:29 | 39.86308 | 23.25576 | 18100 ft | 401 kts | 335° |
| 2026-04-23 10:29 | 39.88912 | 23.24295 | 18091 ft | 401 kts | 335° |
| 2026-04-23 10:29 | 39.91526 | 23.23011 | 18092 ft | 401 kts | 335° |
| 2026-04-23 10:29 | 39.94141 | 23.21728 | 18090 ft | 402 kts | 335° |
| 2026-04-23 10:30 | 39.96757 | 23.20441 | 17608 ft | 400 kts | 335° |
| 2026-04-23 10:30 | 39.99334 | 23.19170 | 17009 ft | 392 kts | 335° |
| 2026-04-23 10:30 | 40.01858 | 23.17920 | 16444 ft | 385 kts | 335° |
| 2026-04-23 10:30 | 40.04355 | 23.16683 | 15884 ft | 382 kts | 336° |
| 2026-04-23 10:31 | 40.06832 | 23.15458 | 15330 ft | 380 kts | 336° |
| 2026-04-23 10:31 | 40.09300 | 23.14236 | 14784 ft | 379 kts | 336° |
| 2026-04-23 10:31 | 40.11756 | 23.13018 | 14247 ft | 377 kts | 336° |
| 2026-04-23 10:31 | 40.14204 | 23.11803 | 13695 ft | 375 kts | 336° |
| 2026-04-23 10:32 | 40.16638 | 23.10591 | 13096 ft | 373 kts | 336° |
| 2026-04-23 10:32 | 40.19025 | 23.09403 | 12523 ft | 356 kts | 336° |
| 2026-04-23 10:32 | 40.21258 | 23.08293 | 11951 ft | 332 kts | 336° |
| 2026-04-23 10:32 | 40.23348 | 23.07255 | 11416 ft | 312 kts | 336° |
| 2026-04-23 10:33 | 40.25322 | 23.06274 | 10904 ft | 294 kts | 336° |
| 2026-04-23 10:33 | 40.27130 | 23.05377 | 10903 ft | 264 kts | 336° |
| 2026-04-23 10:33 | 40.28779 | 23.04562 | 10917 ft | 244 kts | 336° |
| 2026-04-23 10:33 | 40.30378 | 23.03971 | 10736 ft | 232 kts | 343° |
| 2026-04-23 10:34 | 40.31942 | 23.03475 | 9988 ft | 232 kts | 343° |
| 2026-04-23 10:34 | 40.33521 | 23.02972 | 9128 ft | 235 kts | 343° |
| 2026-04-23 10:34 | 40.35106 | 23.02466 | 8394 ft | 232 kts | 344° |
| 2026-04-23 10:34 | 40.36648 | 23.01976 | 7777 ft | 225 kts | 345° |
| 2026-04-23 10:35 | 40.38126 | 23.01505 | 7173 ft | 212 kts | 345° |
| 2026-04-23 10:35 | 40.39547 | 23.01052 | 6368 ft | 210 kts | 345° |
| 2026-04-23 10:35 | 40.40993 | 23.00590 | 5333 ft | 216 kts | 346° |
| 2026-04-23 10:35 | 40.42424 | 23.00134 | 4479 ft | 212 kts | 346° |
| 2026-04-23 10:36 | 40.43863 | 22.99674 | 3630 ft | 208 kts | 346° |
| 2026-04-23 10:36 | 40.45241 | 22.99231 | 2713 ft | 207 kts | 346° |
| 2026-04-23 10:36 | 40.46674 | 22.98771 | 1599 ft | 214 kts | 346° |
| 2026-04-23 10:36 | 40.48085 | 22.98319 | 844 ft | 202 kts | 345° |
| 2026-04-23 10:37 | 40.49378 | 22.97912 | 505 ft | 181 kts | 345° |
| 2026-04-23 10:37 | 40.50540 | 22.97545 | 175 ft | 164 kts | 344° |
| 2026-04-23 10:37 | 40.51592 | 22.97219 | 34 ft | 142 kts | 344° |
| 2026-04-23 10:37 | 40.52391 | 22.96949 | 28 ft | 85 kts | 346° |
| 2026-04-23 10:38 | 40.52646 | 22.96907 | 29 ft | 11 kts | 18° |
| 2026-04-23 10:38 | 40.52678 | 22.96956 | 30 ft | 7 kts | 77° |
| 2026-04-23 10:38 | 40.52689 | 22.97007 | 29 ft | 1 kts | 74° |
| 2026-04-23 10:38 | 40.52691 | 22.97019 | 29 ft | 1 kts | 77° |
| 2026-04-23 10:39 | 40.52691 | 22.97029 | 29 ft | 1 kts | 88° |
| 2026-04-23 10:39 | 40.52679 | 22.97056 | 29 ft | 7 kts | 136° |
| 2026-04-23 10:39 | 40.52617 | 22.97073 | 29 ft | 11 kts | 169° |
| 2026-04-23 10:39 | 40.52540 | 22.97098 | 29 ft | 12 kts | 166° |
| 2026-04-23 10:40 | 40.52451 | 22.97127 | 28 ft | 14 kts | 166° |
| 2026-04-23 10:40 | 40.52385 | 22.97176 | 28 ft | 11 kts | 114° |
| 2026-04-23 10:40 | 40.52393 | 22.97277 | 28 ft | 12 kts | 76° |
| 2026-04-23 10:40 | 40.52391 | 22.97365 | 28 ft | 7 kts | 109° |
| 2026-04-23 10:41 | 40.52416 | 22.97408 | 28 ft | 7 kts | 41° |
| 2026-04-23 10:41 | 40.52428 | 22.97423 | 28 ft | 1 kts | 44° |
| 2026-04-23 10:41 | 40.52431 | 22.97426 | 28 ft | 0 kts | 45° |